Time;durP1;ratioP1;P1;durP2;ratioP2;P2;SDS_P1;SDS_P2;PMS_P1;PMS_P2;Temp;Humidity;BMP_temperature;BMP_pressure;BME280_temperature;BME280_humidity;BME280_pressure;Samples;Min_cycle;Max_cycle;Signal;HPM_P1;HPM_P2
2022/11/23 00:02:18;;;;;;;8.27;2.22;;;;;;;7.38;100.00;98952.28;4999644;28;20054;-71
2022/11/23 00:04:44;;;;;;;5.65;2.40;;;;;;;7.37;100.00;98959.31;4989855;28;20487;-73
2022/11/23 00:07:11;;;;;;;7.78;2.40;;;;;;;7.36;100.00;98962.88;5002379;28;20430;-72
2022/11/23 00:09:37;;;;;;;9.90;2.38;;;;;;;7.36;100.00;98960.25;5000829;28;20083;-73
2022/11/23 00:12:04;;;;;;;9.73;2.35;;;;;;;7.33;100.00;98957.78;4993809;28;20058;-73
2022/11/23 00:14:31;;;;;;;7.30;2.42;;;;;;;7.30;100.00;98955.31;4982583;28;20161;-70
2022/11/23 00:16:57;;;;;;;11.68;2.42;;;;;;;7.25;100.00;98954.72;4998267;28;20050;-71
2022/11/23 00:19:24;;;;;;;9.93;2.20;;;;;;;7.18;100.00;98948.13;5005881;28;20132;-72
2022/11/23 00:21:50;;;;;;;15.50;2.60;;;;;;;7.15;100.00;98939.53;4998528;28;20149;-73
2022/11/23 00:24:17;;;;;;;9.82;2.40;;;;;;;7.09;100.00;98946.00;4985322;28;20050;-72
2022/11/23 00:26:43;;;;;;;9.90;2.55;;;;;;;7.06;100.00;98947.97;5004345;28;20177;-72
2022/11/23 00:29:10;;;;;;;9.95;2.55;;;;;;;6.91;100.00;98931.25;4994141;28;20149;-72
2022/11/23 00:31:36;;;;;;;8.50;2.60;;;;;;;6.96;100.00;98945.81;4995482;28;20172;-71
2022/11/23 00:34:03;;;;;;;9.40;2.78;;;;;;;6.99;100.00;98950.06;4985706;28;20546;-73
2022/11/23 00:36:30;;;;;;;6.93;2.65;;;;;;;6.98;100.00;98954.50;5000571;28;20465;-71
2022/11/23 00:38:57;;;;;;;7.97;2.30;;;;;;;6.99;100.00;98948.28;5002263;28;20050;-71
2022/11/23 00:41:26;;;;;;;12.73;2.63;;;;;;;7.03;100.00;98948.97;4998891;28;20141;-70
2022/11/23 00:43:52;;;;;;;7.43;2.40;;;;;;;6.99;100.00;98936.91;4981031;28;20043;-71
2022/11/23 00:46:24;;;;;;;11.25;2.42;;;;;;;6.93;100.00;98942.50;5004190;28;20042;-70
2022/11/23 00:48:52;;;;;;;9.23;2.50;;;;;;;6.98;100.00;98953.63;4988423;28;20137;-72
2022/11/23 00:51:21;;;;;;;6.80;2.47;;;;;;;6.98;100.00;98949.22;4995083;28;20058;-70
2022/11/23 00:53:49;;;;;;;9.45;2.25;;;;;;;6.94;100.00;98942.44;4988980;28;20149;-70
2022/11/23 00:56:17;;;;;;;12.18;2.80;;;;;;;6.94;100.00;98952.09;4996345;28;20050;-70
2022/11/23 00:58:48;;;;;;;7.72;2.42;;;;;;;6.91;100.00;98947.03;4997004;28;20060;-70
2022/11/23 01:01:16;;;;;;;7.88;2.58;;;;;;;6.90;100.00;98951.44;4997218;28;20053;-72
2022/11/23 01:03:45;;;;;;;7.70;2.65;;;;;;;6.78;100.00;98936.31;4976888;28;20458;-71
2022/11/23 01:06:15;;;;;;;12.52;2.33;;;;;;;6.95;100.00;98962.53;5000792;28;20117;-72
2022/11/23 01:08:42;;;;;;;4.00;2.03;;;;;;;7.02;100.00;98973.59;4998251;28;20469;-72
2022/11/23 01:11:11;;;;;;;10.75;2.42;;;;;;;7.02;100.00;98955.19;4987760;28;20046;-70
2022/11/23 01:13:40;;;;;;;6.05;2.22;;;;;;;6.94;100.00;98946.84;4974290;28;20053;-71
2022/11/23 01:16:12;;;;;;;10.73;2.20;;;;;;;7.07;100.00;98962.81;4995338;28;20047;-69
2022/11/23 01:18:38;;;;;;;5.95;2.25;;;;;;;7.12;100.00;98964.25;4995969;28;20104;-70
2022/11/23 01:21:05;;;;;;;7.65;2.35;;;;;;;7.14;100.00;98961.53;4999860;28;20047;-71
2022/11/23 01:23:31;;;;;;;7.60;2.28;;;;;;;7.18;100.00;98965.69;4985627;28;20056;-71
2022/11/23 01:26:04;;;;;;;6.85;2.30;;;;;;;7.25;100.00;98969.66;4990912;28;20592;-71
2022/11/23 01:28:31;;;;;;;9.93;2.35;;;;;;;7.26;100.00;98966.97;4995501;28;20469;-70
2022/11/23 01:31:06;;;;;;;8.40;2.35;;;;;;;7.30;100.00;98973.75;4999645;28;20056;-71
2022/11/23 01:33:33;;;;;;;9.25;2.60;;;;;;;7.12;100.00;98948.47;4987006;28;20046;-71
2022/11/23 01:36:07;;;;;;;7.82;2.75;;;;;;;7.19;100.00;98976.16;5002173;28;20132;-71
2022/11/23 01:38:33;;;;;;;9.30;2.40;;;;;;;7.21;100.00;98969.03;4999261;28;20061;-70
2022/11/23 01:41:00;;;;;;;6.95;2.25;;;;;;;7.24;100.00;98975.91;4990835;28;20050;-71
2022/11/23 01:43:26;;;;;;;5.65;2.45;;;;;;;7.26;100.00;98972.22;4978119;28;20070;-70
2022/11/23 01:45:58;;;;;;;7.25;2.10;;;;;;;7.30;100.00;98968.50;4994671;28;20069;-70
2022/11/23 01:48:49;;;;;;;6.65;2.17;;;;;;;7.36;100.00;98972.56;4992613;28;20046;-71
2022/11/23 01:51:29;;;;;;;8.52;2.28;;;;;;;7.31;100.00;98967.56;4996654;28;20042;-71
2022/11/23 01:54:01;;;;;;;7.47;1.98;;;;;;;7.37;100.00;98975.13;4973805;28;20125;-71
2022/11/23 01:56:33;;;;;;;7.55;1.90;;;;;;;7.42;100.00;98981.88;4981725;28;20081;-71
2022/11/23 01:59:03;;;;;;;7.97;2.25;;;;;;;7.38;100.00;98971.56;4996596;28;20049;-71
2022/11/23 02:01:30;;;;;;;7.88;2.42;;;;;;;7.43;100.00;98978.31;4993194;28;20049;-71
2022/11/23 02:03:59;;;;;;;6.65;2.63;;;;;;;7.33;100.00;98963.06;4981220;28;20476;-71
2022/11/23 02:06:26;;;;;;;6.30;1.83;;;;;;;7.42;100.00;98974.84;4994255;28;20057;-72
2022/11/23 02:08:53;;;;;;;8.52;2.17;;;;;;;7.39;100.00;98970.63;4995446;28;20057;-71
2022/11/23 02:11:19;;;;;;;10.88;2.25;;;;;;;7.44;100.00;98977.38;4990855;28;20128;-72
2022/11/23 02:13:49;;;;;;;10.77;2.58;;;;;;;7.34;100.00;98956.84;4983839;28;20108;-72
2022/11/23 02:16:16;;;;;;;10.75;2.35;;;;;;;7.38;100.00;98955.75;4992985;28;20050;-72
2022/11/23 02:18:45;;;;;;;6.60;1.98;;;;;;;7.50;100.00;98974.41;4998701;28;20046;-72
2022/11/23 02:21:13;;;;;;;8.45;2.22;;;;;;;7.55;100.00;98975.88;4996461;28;20057;-71
2022/11/23 02:24:00;;;;;;;7.72;2.08;;;;;;;7.43;100.00;98949.34;4987655;28;20079;-72
2022/11/23 02:26:29;;;;;;;8.32;2.05;;;;;;;7.53;100.00;98963.72;5000178;28;20124;-71
2022/11/23 02:29:08;;;;;;;7.38;2.13;;;;;;;7.58;100.00;98972.19;4995484;28;20060;-72
2022/11/23 02:31:35;;;;;;;8.65;2.08;;;;;;;7.59;100.00;98961.56;4987028;28;20062;-71
2022/11/23 02:34:01;;;;;;;4.68;1.75;;;;;;;7.52;100.00;98970.78;4985025;28;20050;-71
2022/11/23 02:36:40;;;;;;;8.93;2.35;;;;;;;7.36;100.00;98949.72;4989325;28;20141;-72
2022/11/23 02:39:10;;;;;;;11.25;2.10;;;;;;;7.45;100.00;98963.28;4990265;28;20046;-71
2022/11/23 02:41:39;;;;;;;8.15;1.85;;;;;;;7.44;100.00;98966.84;4994535;28;20126;-72
2022/11/23 02:44:13;;;;;;;10.75;1.90;;;;;;;7.44;100.00;98967.72;4979226;28;20062;-71
2022/11/23 02:46:40;;;;;;;9.77;2.03;;;;;;;7.42;100.00;98968.72;4994621;28;20078;-72
2022/11/23 02:49:06;;;;;;;7.05;1.92;;;;;;;7.34;100.00;98951.59;4990373;28;20134;-71
2022/11/23 02:51:33;;;;;;;7.00;2.50;;;;;;;7.26;100.00;98938.00;4995888;28;20445;-73
2022/11/23 02:53:59;;;;;;;7.65;2.35;;;;;;;7.36;100.00;98957.63;4979700;28;20058;-70
2022/11/23 02:56:26;;;;;;;6.97;1.95;;;;;;;7.34;100.00;98962.13;4986714;28;20054;-70
2022/11/23 02:58:52;;;;;;;6.03;2.25;;;;;;;7.32;100.00;98964.00;4997901;28;20381;-71
2022/11/23 03:01:19;;;;;;;7.35;2.20;;;;;;;7.35;100.00;98960.34;5001005;28;20503;-71
2022/11/23 03:03:45;;;;;;;7.25;2.30;;;;;;;7.34;100.00;98961.28;4984153;28;20074;-72
2022/11/23 03:06:12;;;;;;;6.53;2.20;;;;;;;7.31;100.00;98967.56;4991911;28;20153;-72
2022/11/23 03:08:38;;;;;;;9.10;1.85;;;;;;;7.35;100.00;98961.19;4996272;28;20054;-71
2022/11/23 03:11:05;;;;;;;8.43;2.30;;;;;;;7.20;100.00;98941.00;4988958;28;20054;-72
2022/11/23 03:13:32;;;;;;;8.60;2.35;;;;;;;7.37;100.00;98963.75;4994533;28;20051;-71
2022/11/23 03:15:58;;;;;;;9.27;1.90;;;;;;;7.39;100.00;98970.63;4990056;28;20546;-72
2022/11/23 03:18:25;;;;;;;6.82;2.03;;;;;;;7.43;100.00;98975.69;4999880;28;20105;-70
2022/11/23 03:20:51;;;;;;;8.63;2.20;;;;;;;7.39;100.00;98975.03;5001280;28;20133;-71
2022/11/23 03:23:18;;;;;;;7.20;1.85;;;;;;;7.44;100.00;98977.38;4993708;28;20079;-72
2022/11/23 03:25:44;;;;;;;5.80;2.08;;;;;;;7.46;100.00;98970.25;4987945;28;20042;-72
2022/11/23 03:28:11;;;;;;;8.30;1.77;;;;;;;7.45;100.00;98977.31;4990991;28;20038;-71
2022/11/23 03:30:38;;;;;;;9.45;2.67;;;;;;;7.30;100.00;98955.31;5001734;28;20662;-72
2022/11/23 03:33:04;;;;;;;8.43;2.33;;;;;;;7.26;100.00;98961.69;4993336;28;20165;-71
2022/11/23 03:35:31;;;;;;;9.75;2.55;;;;;;;7.35;100.00;98979.63;5000785;28;20157;-71
2022/11/23 03:37:57;;;;;;;7.80;2.38;;;;;;;7.23;100.00;98961.88;5000287;28;20469;-71
2022/11/23 03:40:24;;;;;;;8.90;2.10;;;;;;;7.25;100.00;98959.13;5005299;28;20046;-71
2022/11/23 03:42:50;;;;;;;8.88;2.50;;;;;;;7.37;100.00;98977.75;4988034;28;20057;-71
2022/11/23 03:45:17;;;;;;;11.10;1.98;;;;;;;7.29;100.00;98961.53;4982949;28;20062;-70
2022/11/23 03:47:43;;;;;;;10.63;2.45;;;;;;;7.39;100.00;98975.03;4992028;28;20134;-70
2022/11/23 03:50:10;;;;;;;10.13;2.40;;;;;;;7.30;100.00;98957.09;4996611;28;20066;-70
2022/11/23 03:52:36;;;;;;;10.20;2.63;;;;;;;7.35;100.00;98984.88;4996538;28;20054;-70
2022/11/23 03:55:04;;;;;;;11.05;2.60;;;;;;;7.32;100.00;98992.09;4983933;28;20046;-69
2022/11/23 03:57:30;;;;;;;9.70;2.20;;;;;;;7.13;100.00;98958.06;4995996;28;20193;-70
2022/11/23 03:59:57;;;;;;;8.77;2.22;;;;;;;7.14;100.00;98974.69;5001581;28;20053;-73
2022/11/23 04:02:23;;;;;;;8.20;2.25;;;;;;;7.22;100.00;98980.41;4996047;28;20052;-72
2022/11/23 04:04:50;;;;;;;8.05;2.28;;;;;;;7.21;100.00;98976.06;4981348;28;20130;-70
2022/11/23 04:07:17;;;;;;;10.45;2.40;;;;;;;7.15;100.00;98987.78;5001628;28;20126;-70
2022/11/23 04:09:43;;;;;;;7.03;2.45;;;;;;;7.09;100.00;98977.56;5002236;28;20115;-70
2022/11/23 04:12:10;;;;;;;11.07;2.58;;;;;;;6.95;100.00;98975.72;4994960;28;20585;-70
2022/11/23 04:14:36;;;;;;;6.55;2.30;;;;;;;7.04;100.00;98996.28;4988030;28;20053;-71
2022/11/23 04:17:03;;;;;;;8.48;2.25;;;;;;;7.03;100.00;98989.31;4988545;28;20331;-70
2022/11/23 04:19:30;;;;;;;6.28;2.30;;;;;;;7.03;100.00;98981.41;5007054;28;20582;-70
2022/11/23 04:21:57;;;;;;;9.32;2.63;;;;;;;6.97;100.00;98957.19;4999778;28;20093;-71
2022/11/23 04:24:23;;;;;;;12.18;2.70;;;;;;;7.15;100.00;98992.19;4988231;28;20125;-71
2022/11/23 04:26:50;;;;;;;8.43;2.65;;;;;;;7.17;100.00;98987.69;4997336;28;20045;-70
2022/11/23 04:29:16;;;;;;;8.75;2.72;;;;;;;7.12;100.00;98981.81;4999487;28;20073;-71
2022/11/23 04:31:43;;;;;;;7.97;2.63;;;;;;;7.09;100.00;99000.41;5007156;28;20053;-71
2022/11/23 04:34:10;;;;;;;9.65;2.97;;;;;;;7.07;100.00;98992.63;4991087;28;20053;-72
2022/11/23 04:36:36;;;;;;;6.15;2.45;;;;;;;6.92;100.00;98970.63;4989476;28;20410;-72
2022/11/23 04:39:03;;;;;;;6.13;2.30;;;;;;;6.93;100.00;98971.44;5000054;28;20071;-70
2022/11/23 04:41:29;;;;;;;8.50;2.40;;;;;;;7.01;100.00;98979.78;4995885;28;20093;-71
2022/11/23 04:43:56;;;;;;;9.93;2.40;;;;;;;7.13;100.00;98994.91;4996600;28;20957;-73
2022/11/23 04:46:23;;;;;;;10.38;2.45;;;;;;;7.15;100.00;98987.78;4990152;28;20767;-71
2022/11/23 04:48:49;;;;;;;8.95;2.28;;;;;;;7.19;100.00;98989.31;4992611;28;20056;-71
2022/11/23 04:51:16;;;;;;;7.18;2.22;;;;;;;7.21;100.00;98983.97;4997435;28;20573;-71
2022/11/23 04:53:42;;;;;;;7.47;2.03;;;;;;;7.25;100.00;98998.63;5001208;28;20144;-71
2022/11/23 04:56:09;;;;;;;9.05;2.17;;;;;;;7.23;100.00;98985.59;4985222;28;20188;-71
2022/11/23 04:58:36;;;;;;;9.30;2.28;;;;;;;7.22;100.00;98980.41;4995024;28;20137;-71
2022/11/23 05:01:03;;;;;;;9.10;2.33;;;;;;;7.28;100.00;98991.41;4999779;28;20056;-71
2022/11/23 05:03:30;;;;;;;9.70;4.40;;;;;;;7.31;100.00;98986.00;4992759;28;20050;-71
2022/11/23 05:05:57;;;;;;;7.63;2.28;;;;;;;7.34;100.00;98990.25;4980028;28;20054;-72
2022/11/23 05:08:24;;;;;;;8.00;2.85;;;;;;;7.26;100.00;98971.38;4997514;28;20054;-71
2022/11/23 05:10:51;;;;;;;9.52;2.78;;;;;;;7.32;100.00;98987.69;4991882;28;20511;-70
2022/11/23 05:13:17;;;;;;;9.05;2.60;;;;;;;7.24;100.00;98989.88;4997484;28;20651;-71
2022/11/23 05:15:44;;;;;;;9.27;2.25;;;;;;;7.21;100.00;98986.59;4977771;28;20162;-71
2022/11/23 05:18:10;;;;;;;8.68;2.13;;;;;;;7.18;100.00;98981.50;4996678;28;20050;-74
2022/11/23 05:20:37;;;;;;;9.07;2.45;;;;;;;7.16;100.00;98989.47;4997234;28;20069;-71
2022/11/23 05:23:04;;;;;;;10.55;2.83;;;;;;;7.09;100.00;98971.47;5000613;28;20053;-70
2022/11/23 05:25:31;;;;;;;10.00;2.75;;;;;;;7.11;100.00;98964.34;4975506;28;20069;-70
2022/11/23 05:27:58;;;;;;;7.90;2.38;;;;;;;7.28;100.00;98993.19;5001428;28;20054;-74
2022/11/23 05:30:42;;;;;;;11.10;2.85;;;;;;;7.31;100.00;98986.00;4999257;28;20073;-71
2022/11/23 05:33:08;;;;;;;6.40;2.50;;;;;;;7.20;100.00;98975.22;4991993;28;20444;-72
2022/11/23 05:35:35;;;;;;;6.43;2.40;;;;;;;7.24;100.00;98978.53;4979243;28;20558;-70
2022/11/23 05:38:02;;;;;;;9.77;2.50;;;;;;;7.19;100.00;98965.63;4993252;28;20050;-70
2022/11/23 05:40:28;;;;;;;7.93;2.17;;;;;;;7.32;100.00;98984.22;4995835;28;20390;-70
2022/11/23 05:42:58;;;;;;;10.27;2.33;;;;;;;7.35;100.00;98992.78;4993582;28;20064;-70
2022/11/23 05:45:25;;;;;;;7.03;2.72;;;;;;;7.35;100.00;98994.56;4984292;28;20046;-71
2022/11/23 05:47:54;;;;;;;10.65;2.72;;;;;;;7.21;100.00;98971.66;4986999;28;20061;-71
2022/11/23 05:50:22;;;;;;;8.40;2.20;;;;;;;7.32;100.00;99002.63;4997556;28;20053;-70
2022/11/23 05:52:49;;;;;;;8.00;2.30;;;;;;;7.33;100.00;99001.72;4993282;28;20050;-71
2022/11/23 05:55:15;;;;;;;10.18;2.60;;;;;;;7.33;100.00;99005.19;4985463;28;20038;-71
2022/11/23 05:57:42;;;;;;;7.70;2.22;;;;;;;7.36;100.00;99010.28;4988895;28;20444;-72
2022/11/23 06:00:09;;;;;;;10.70;2.60;;;;;;;7.35;100.00;99010.38;4999991;28;20053;-71
2022/11/23 06:02:36;;;;;;;6.97;2.22;;;;;;;7.33;100.00;99007.81;4997159;28;20050;-72
2022/11/23 06:05:07;;;;;;;;;;;;;;;7.35;100.00;99013.84;4986195;28;20502;-72
2022/11/23 06:07:34;;;;;;;6.35;2.58;;;;;;;7.35;100.00;99007.75;4987026;28;19976;-71
2022/11/23 06:10:01;;;;;;;9.65;3.05;;;;;;;7.26;100.00;98995.91;4992786;28;20054;-71
2022/11/23 06:12:28;;;;;;;10.68;2.70;;;;;;;7.34;100.00;99006.88;4994215;28;20513;-71
2022/11/23 06:14:55;;;;;;;7.35;2.70;;;;;;;7.36;100.00;99018.19;4992264;28;20043;-71
2022/11/23 06:17:22;;;;;;;8.32;3.55;;;;;;;7.21;100.00;98990.09;4987059;28;20049;-71
2022/11/23 06:19:49;;;;;;;7.30;2.70;;;;;;;7.37;100.00;99026.94;4996907;28;20133;-71
2022/11/23 06:22:16;;;;;;;6.63;2.20;;;;;;;7.36;100.00;99026.09;4997128;28;20530;-71
2022/11/23 06:24:42;;;;;;;11.48;2.63;;;;;;;7.34;100.00;99025.31;4986862;28;20146;-70
2022/11/23 06:27:09;;;;;;;11.93;2.58;;;;;;;7.36;100.00;99020.81;4980943;28;20046;-71
2022/11/23 06:29:42;;;;;;;5.97;3.03;;;;;;;7.37;100.00;99032.22;4995680;28;20061;-70
2022/11/23 06:32:09;;;;;;;8.02;2.83;;;;;;;7.36;100.00;99022.59;4993442;28;20129;-72
2022/11/23 06:34:36;;;;;;;7.53;2.20;;;;;;;7.33;100.00;99028.03;4990713;28;20065;-73
2022/11/23 06:37:02;;;;;;;10.95;2.63;;;;;;;7.34;100.00;99014.78;4994956;28;20722;-71
2022/11/23 06:39:29;;;;;;;5.75;2.67;;;;;;;7.36;100.00;99026.09;5002019;28;20116;-70
2022/11/23 06:41:56;;;;;;;8.23;2.45;;;;;;;7.38;100.00;99015.47;4986944;28;20077;-74
2022/11/23 06:44:42;;;;;;;14.57;2.65;;;;;;;7.39;100.00;99020.66;4983734;28;20073;-71
2022/11/23 06:47:09;;;;;;;11.20;2.60;;;;;;;7.38;100.00;99023.38;4983177;28;20062;-71
2022/11/23 06:49:42;;;;;;;6.50;2.53;;;;;;;7.34;100.00;99029.75;4993418;28;20136;-72
2022/11/23 06:52:09;;;;;;;10.07;2.85;;;;;;;7.31;100.00;99041.28;5002448;28;20145;-73
2022/11/23 06:54:35;;;;;;;8.43;2.60;;;;;;;7.31;100.00;99040.44;5000100;28;20064;-70
2022/11/23 06:57:02;;;;;;;7.13;2.47;;;;;;;7.30;100.00;99039.59;4988873;28;20402;-71
2022/11/23 06:59:28;;;;;;;9.00;2.10;;;;;;;7.34;100.00;99035.00;5001009;28;20141;-70
2022/11/23 07:01:55;;;;;;;8.00;2.55;;;;;;;7.33;100.00;99043.84;5006164;28;20053;-71
2022/11/23 07:04:22;;;;;;;8.25;2.47;;;;;;;7.31;100.00;99041.28;4986172;28;20050;-71
2022/11/23 07:06:48;;;;;;;7.93;2.28;;;;;;;7.33;100.00;99041.22;4986798;28;20056;-71
2022/11/23 07:09:15;;;;;;;8.85;2.83;;;;;;;7.29;100.00;99042.31;4999688;28;20166;-71
2022/11/23 07:11:41;;;;;;;7.57;2.72;;;;;;;7.31;100.00;99046.56;4997918;28;20080;-73
2022/11/23 07:14:08;;;;;;;8.40;2.55;;;;;;;7.08;100.00;99025.06;4996948;28;20061;-72
2022/11/23 07:16:35;;;;;;;7.55;2.70;;;;;;;7.13;100.00;99042.28;4990093;28;20129;-72
2022/11/23 07:19:01;;;;;;;7.85;2.42;;;;;;;7.01;100.00;99022.75;4997202;28;20060;-71
2022/11/23 07:21:28;;;;;;;8.52;2.60;;;;;;;7.20;100.00;99048.94;4999302;28;20054;-73
2022/11/23 07:23:55;;;;;;;6.28;2.38;;;;;;;7.17;100.00;99049.09;4997395;28;20442;-72
2022/11/23 07:26:22;;;;;;;6.90;2.63;;;;;;;7.13;100.00;99046.69;4979014;28;20047;-70
2022/11/23 07:28:48;;;;;;;15.30;2.92;;;;;;;7.17;100.00;99049.09;4996547;28;20495;-73
2022/11/23 07:31:15;;;;;;;10.23;2.90;;;;;;;7.23;100.00;99056.66;5001233;28;20046;-72
2022/11/23 07:33:45;;;;;;;8.90;2.58;;;;;;;7.30;100.00;99065.06;4995038;28;20133;-71
2022/11/23 07:36:13;;;;;;;12.82;3.17;;;;;;;7.35;100.00;99057.78;4989141;28;20049;-70
2022/11/23 07:38:39;;;;;;;16.98;3.30;;;;;;;7.34;100.00;99061.34;4995370;28;20050;-71
2022/11/23 07:41:07;;;;;;;12.80;2.50;;;;;;;7.28;100.00;99051.97;5001886;28;20046;-71
2022/11/23 07:43:34;;;;;;;10.85;3.30;;;;;;;7.45;100.00;99055.47;5001277;28;20577;-71
2022/11/23 07:46:00;;;;;;;10.57;2.45;;;;;;;7.46;100.00;99059.81;4979349;28;20051;-71
2022/11/23 07:48:27;;;;;;;13.68;2.92;;;;;;;7.43;100.00;99058.19;4989787;28;20046;-73
2022/11/23 07:51:01;;;;;;;9.77;3.03;;;;;;;7.47;100.00;99064.13;4999429;28;20426;-70
2022/11/23 07:53:28;;;;;;;9.18;3.10;;;;;;;7.55;100.00;99061.94;4997725;28;20066;-71
2022/11/23 07:55:58;;;;;;;12.45;3.80;;;;;;;7.62;100.00;99068.56;4986064;28;20054;-69
2022/11/23 07:58:24;;;;;;;11.88;3.53;;;;;;;7.62;100.00;99072.03;4998979;28;20062;-73
2022/11/23 08:00:51;;;;;;;13.55;4.25;;;;;;;7.48;100.00;99055.31;5001559;28;20120;-73
2022/11/23 08:03:18;;;;;;;10.43;3.47;;;;;;;7.59;100.00;99071.34;4995191;28;20149;-72
2022/11/23 08:05:53;;;;;;;9.52;3.10;;;;;;;7.65;100.00;99073.66;4986718;28;20502;-71
2022/11/23 08:08:20;;;;;;;13.27;3.63;;;;;;;7.78;100.00;99068.53;4993957;28;20046;-72
2022/11/23 08:10:46;;;;;;;9.00;3.40;;;;;;;7.82;100.00;99072.72;4996329;28;20077;-71
2022/11/23 08:13:20;;;;;;;10.80;3.00;;;;;;;7.82;100.00;99068.28;5001503;28;20041;-72
2022/11/23 08:15:46;;;;;;;9.88;2.85;;;;;;;7.80;100.00;99066.69;4984703;28;20078;-71
2022/11/23 08:18:20;;;;;;;9.73;2.88;;;;;;;7.67;100.00;99058.63;4992577;28;20046;-72
2022/11/23 08:20:47;;;;;;;9.45;2.67;;;;;;;7.77;100.00;99080.00;5000228;28;20550;-72
2022/11/23 08:23:13;;;;;;;10.50;2.78;;;;;;;7.62;100.00;99045.69;5001477;28;20089;-73
2022/11/23 08:25:40;;;;;;;12.00;3.17;;;;;;;7.67;100.00;99056.84;4986545;28;20080;-73
2022/11/23 08:28:07;;;;;;;7.85;2.65;;;;;;;7.87;100.00;99079.41;4991479;28;20466;-70
2022/11/23 08:30:34;;;;;;;9.88;2.90;;;;;;;7.81;100.00;99050.78;4999316;28;20060;-72
2022/11/23 08:33:03;;;;;;;15.82;3.38;;;;;;;7.97;100.00;99077.97;4994781;28;20054;-72
2022/11/23 08:35:32;;;;;;;14.77;3.15;;;;;;;8.02;100.00;99075.91;4995732;28;20495;-72
2022/11/23 08:37:59;;;;;;;9.90;2.60;;;;;;;8.03;100.00;99060.91;4985714;28;20486;-72
2022/11/23 08:40:25;;;;;;;7.97;2.70;;;;;;;8.01;100.00;99057.56;5004489;28;20518;-72
2022/11/23 08:42:53;;;;;;;9.23;2.38;;;;;;;8.22;100.00;99071.25;4996666;28;20498;-72
2022/11/23 08:45:20;;;;;;;12.25;2.90;;;;;;;8.21;100.00;99064.28;4997627;28;20065;-71
2022/11/23 08:47:47;;;;;;;6.88;2.25;;;;;;;8.38;100.00;99077.38;4981042;28;20499;-73
2022/11/23 08:50:14;;;;;;;9.30;2.80;;;;;;;8.41;100.00;99070.13;4995635;28;20467;-71
2022/11/23 08:52:40;;;;;;;10.00;2.80;;;;;;;8.44;100.00;99080.50;4998842;28;20069;-73
2022/11/23 08:55:07;;;;;;;11.88;2.63;;;;;;;8.28;100.00;99060.38;4999508;28;20588;-72
2022/11/23 08:57:34;;;;;;;8.70;2.90;;;;;;;8.55;100.00;99066.66;4974927;28;20145;-71
2022/11/23 09:00:02;;;;;;;7.90;2.55;;;;;;;8.73;100.00;99056.78;4998757;28;20058;-70
2022/11/23 09:02:28;;;;;;;5.93;2.20;;;;;;;9.05;100.00;99078.59;4997550;28;20493;-72
2022/11/23 09:04:55;;;;;;;13.02;3.05;;;;;;;9.25;100.00;99072.94;4993141;28;20148;-71
2022/11/23 09:07:21;;;;;;;8.38;2.45;;;;;;;9.40;100.00;99066.69;4980285;28;20483;-71
2022/11/23 09:09:48;;;;;;;9.35;2.78;;;;;;;9.60;100.00;99075.97;5000917;28;20502;-70
2022/11/23 09:12:15;;;;;;;8.27;2.78;;;;;;;9.65;100.00;99075.69;4991201;28;20046;-71
2022/11/23 09:14:41;;;;;;;9.38;2.67;;;;;;;9.58;100.00;99067.31;5006243;28;20081;-70
2022/11/23 09:17:08;;;;;;;9.10;2.70;;;;;;;9.59;100.00;99076.09;4978522;28;20532;-71
2022/11/23 09:19:35;;;;;;;6.20;2.72;;;;;;;9.46;100.00;99057.50;4999593;28;20220;-71
2022/11/23 09:22:02;;;;;;;8.75;2.45;;;;;;;9.36;100.00;99051.09;4998741;28;20064;-71
2022/11/23 09:24:28;;;;;;;6.80;2.40;;;;;;;9.35;100.00;99055.53;4988387;28;20133;-71
2022/11/23 09:26:56;;;;;;;8.32;2.50;;;;;;;9.48;100.00;99077.59;4972756;28;20046;-71
2022/11/23 09:29:24;;;;;;;12.35;2.67;;;;;;;9.48;100.00;99074.97;4992954;28;20662;-72
2022/11/23 09:31:50;;;;;;;10.55;2.80;;;;;;;9.35;100.00;99047.63;4992468;28;20061;-70
2022/11/23 09:34:17;;;;;;;9.40;2.45;;;;;;;9.52;100.00;99072.13;4997314;28;20569;-71
2022/11/23 09:36:44;;;;;;;7.75;2.80;;;;;;;9.59;100.00;99071.66;4993548;28;20058;-71
2022/11/23 09:39:10;;;;;;;8.88;3.10;;;;;;;9.61;100.00;99074.16;5004029;28;20191;-70
2022/11/23 09:42:14;;;;;;;11.27;2.88;;;;;;;9.64;100.00;99073.97;4997848;28;20124;-70
2022/11/23 09:44:58;;;;;;;4.97;2.35;;;;;;;9.65;100.00;99075.69;4986145;28;20448;-72
2022/11/23 09:47:33;;;;;;;8.18;2.80;;;;;;;9.66;100.00;99072.94;4980970;28;20133;-72
2022/11/23 09:50:06;;;;;;;10.98;2.75;;;;;;;9.63;100.00;99073.13;4993397;28;20418;-71
2022/11/23 09:52:36;;;;;;;11.82;2.67;;;;;;;9.58;100.00;99077.03;4994013;28;20086;-70
2022/11/23 09:55:13;;;;;;;10.57;2.42;;;;;;;9.60;100.00;99072.50;4997054;28;20046;-70
2022/11/23 09:57:43;;;;;;;10.98;2.63;;;;;;;9.55;100.00;99070.13;4984162;28;20528;-74
2022/11/23 10:00:22;;;;;;;10.20;2.40;;;;;;;9.35;100.00;99052.91;5000652;28;20148;-70
2022/11/23 10:02:49;;;;;;;10.32;2.67;;;;;;;9.42;100.00;99046.31;4996632;28;20059;-71
2022/11/23 10:05:21;;;;;;;7.82;2.25;;;;;;;9.63;100.00;99074.91;5002704;28;20150;-72
2022/11/23 10:08:03;;;;;;;9.25;2.63;;;;;;;9.58;100.00;99040.88;4979263;28;20046;-71
2022/11/23 10:10:54;;;;;;;10.63;2.50;;;;;;;9.75;100.00;99069.72;4987224;28;20394;-72
2022/11/23 10:13:33;;;;;;;8.05;2.33;;;;;;;9.80;100.00;99066.75;4994488;28;20129;-72
2022/11/23 10:16:19;;;;;;;10.13;2.55;;;;;;;9.91;100.00;99064.28;4985568;28;20058;-70
2022/11/23 10:19:12;;;;;;;6.53;2.17;;;;;;;9.99;98.77;99064.63;4984578;28;20479;-72
2022/11/23 10:22:05;;;;;;;8.38;2.22;;;;;;;10.12;98.66;99068.16;4997772;28;20048;-72
2022/11/23 10:24:37;;;;;;;9.85;2.35;;;;;;;10.27;95.19;99062.81;4994676;28;20068;-72
2022/11/23 10:27:12;;;;;;;11.27;2.50;;;;;;;10.35;93.73;99063.16;4983305;28;20085;-71
2022/11/23 10:29:40;;;;;;;8.43;2.53;;;;;;;10.38;91.91;99061.16;4998255;28;20417;-71
2022/11/23 10:32:23;;;;;;;8.88;3.03;;;;;;;10.34;91.62;99051.72;4994224;28;20535;-71
2022/11/23 10:35:01;;;;;;;11.65;2.40;;;;;;;10.39;91.14;99064.66;4997114;28;20050;-72
2022/11/23 10:37:28;;;;;;;8.15;2.17;;;;;;;10.39;91.55;99065.47;4983256;28;20050;-72
2022/11/23 10:39:54;;;;;;;10.48;2.35;;;;;;;10.42;90.15;99060.00;5000539;28;20153;-71
2022/11/23 10:42:24;;;;;;;8.48;2.42;;;;;;;10.29;90.25;99048.53;4987566;28;20057;-71
2022/11/23 10:44:52;;;;;;;8.25;2.10;;;;;;;10.26;91.14;99055.81;4992147;28;20058;-73
2022/11/23 10:47:47;;;;;;;8.10;1.77;;;;;;;10.05;92.00;99032.50;4978498;28;20147;-72
2022/11/23 10:50:20;;;;;;;6.18;2.50;;;;;;;9.94;92.96;99023.53;4993310;28;20062;-72
2022/11/23 10:53:14;;;;;;;8.63;1.88;;;;;;;9.97;91.97;99048.00;4993236;28;20053;-72
2022/11/23 10:55:52;;;;;;;11.65;2.88;;;;;;;9.89;93.44;99039.75;4988422;28;20130;-70
2022/11/23 10:58:33;;;;;;;10.45;2.20;;;;;;;9.79;91.94;99043.91;4986024;28;20403;-72
2022/11/23 11:01:06;;;;;;;8.48;2.17;;;;;;;9.52;93.46;99008.69;4998821;28;20046;-70
2022/11/23 11:03:34;;;;;;;10.60;2.80;;;;;;;9.70;93.75;99033.94;4993632;28;20073;-73
2022/11/23 11:06:01;;;;;;;10.98;2.92;;;;;;;9.87;92.85;99030.22;4992649;28;20054;-72
2022/11/23 11:08:50;;;;;;;6.53;1.67;;;;;;;9.81;91.23;99021.72;4995498;28;20057;-71
2022/11/23 11:11:36;;;;;;;8.95;1.98;;;;;;;9.80;92.01;99027.09;4992775;28;20425;-71
2022/11/23 11:14:14;;;;;;;9.30;2.15;;;;;;;9.87;92.11;99025.75;4997666;28;20046;-70
2022/11/23 11:16:55;;;;;;;9.23;1.95;;;;;;;9.98;90.80;99023.25;4984303;28;20084;-71
2022/11/23 11:19:32;;;;;;;9.23;2.17;;;;;;;10.05;89.63;99018.41;4994360;28;20137;-72
2022/11/23 11:22:01;;;;;;;7.97;1.85;;;;;;;9.90;89.58;98993.00;4996302;28;20084;-71
2022/11/23 11:24:36;;;;;;;8.65;2.67;;;;;;;9.98;90.56;99015.31;4992408;28;20081;-71
2022/11/23 11:27:11;;;;;;;9.38;3.35;;;;;;;9.98;90.40;99015.31;4983253;28;20501;-71
2022/11/23 11:29:46;;;;;;;6.43;2.08;;;;;;;9.95;89.71;98994.34;4992825;28;20054;-70
2022/11/23 11:32:33;;;;;;;8.75;2.30;;;;;;;10.13;89.04;99005.50;5000406;28;20092;-72
2022/11/23 11:35:12;;;;;;;7.25;1.75;;;;;;;10.13;88.24;99001.06;4997575;28;20142;-71
2022/11/23 11:37:48;;;;;;;7.72;1.98;;;;;;;10.10;87.65;98998.63;4979865;28;20108;-70
2022/11/23 11:40:18;;;;;;;8.10;2.00;;;;;;;10.04;88.28;98985.81;5001047;28;20417;-71
2022/11/23 11:43:09;;;;;;;9.70;2.22;;;;;;;10.10;87.44;98987.19;4994232;28;20061;-71